« Back
NWS Peachtree City, Ga » Text Product » CSG Terminal Aerodrome Forecast


Printer-friendly Version
Current Version              Previous Versions:   1  2  3  4  5  6  7  8  9  

Terminal Aerodrome Forecast

489
FTUS42 KFFC 291131
TAFCSG
TAF
KCSG 291131Z 2912/3012 00000KT P6SM SKC
     FM291600 16006KT P6SM FEW200
     FM292200 20008KT P6SM SCT120
     FM292300 21007KT P6SM BKN070
     FM300400 26005KT P6SM BKN025
     FM300600 26004KT P6SM BKN012 PROB30 3006/3010 -RA BKN012=



USA.gov is the U.S. government's official web portal to all federal, state and local government web resources and services.